Terminal Aerodrome Forecast
Issued by NWS

Home | Current Version | Previous Version | Text Only | Print | Product List | Glossary On
Versions: 1 2 3 4 5 6 7 8 9 10 11 12 13 14 15 16 17 18 19 20 21 22 23 24 25 26 27 28
820
FTUS43 KDLH 211045 AAB
TAFHYR
TAF AMD
KHYR 211045Z 2111/2206 00000KT P6SM SKC
      TEMPO 2111/2113 3SM BR SCT002
     FM212100 VRB03KT P6SM VCTS BKN060CB OVC100
     FM220200 VRB03KT P6SM BKN080 OVC150=

USA.gov is the U.S. government's official web portal to all federal, state and local government web resources and services.